KRCR/RCR METAR and TAF weather

Enter ICAO airport designator
Station Type Date Time Source
KRCR METAR 2024/04/17 18:15 UTC NOAA

KRCR 171815Z AUTO 27018G24KT 10SM FEW045 BKN060 BKN075 20/11 A2969 RMK AO2


Station Type Date Time Source
KRCR Decoded METAR 2024/04/17 18:15 UTC NOAA

Station name not available
Apr 17, 2024 - 02:15 PM EDT / 2024.04.17 1815 UTC
Wind: from the W (270 degrees) at 21 MPH (18 KT) gusting to 28 MPH (24 KT):0
Visibility: 10 mile(s):0
Sky conditions: mostly cloudy
Temperature: 68 F (20 C)
Dew Point: 51 F (11 C)
Relative Humidity: 56%
Pressure (altimeter): 29.69 in. Hg (1005 hPa)
ob: KRCR 171815Z AUTO 27018G24KT 10SM FEW045 BKN060 BKN075 20/11 A2969 RMK AO2
cycle: 18

Station Type Date Time Source
KRCR TAF UTC NOAA

Error!

Example: see airport list